Time;durP1;ratioP1;P1;durP2;ratioP2;P2;SDS_P1;SDS_P2;PMS_P1;PMS_P2;Temp;Humidity;BMP_temperature;BMP_pressure;BME280_temperature;BME280_humidity;BME280_pressure;Samples;Min_cycle;Max_cycle;Signal;HPM_P1;HPM_P2
2023/04/08 06:24:29;;;;;;;;;;;21.20;42.00;;;;;;3047681;19;4626;-28
2023/04/08 06:25:29;;;;;;;;;;;20.60;38.10;;;;;;3053775;19;4369;-29
2023/04/08 06:26:30;;;;;;;;;;;20.60;38.10;;;;;;3053195;19;4731;-31
2023/04/08 06:27:31;;;;;;;;;;;20.60;38.10;;;;;;3050425;19;4585;-29
2023/04/08 06:28:31;;;;;;;;;;;20.60;38.20;;;;;;3051955;19;5724;-26
2023/04/08 06:29:32;;;;;;;;;;;20.60;38.20;;;;;;3050044;19;4626;-26
2023/04/08 06:30:33;;;;;;;;;;;20.60;38.10;;;;;;3052652;19;4658;-31
2023/04/08 06:31:34;;;;;;;;;;;20.60;38.20;;;;;;3055142;19;4589;-26
2023/04/08 06:32:35;;;;;;;;;;;20.60;38.20;;;;;;3052020;19;4566;-27
2023/04/08 06:33:35;;;;;;;;;;;20.60;38.20;;;;;;3053540;19;5128;-26
2023/04/08 06:34:36;;;;;;;;;;;20.60;38.20;;;;;;3053232;19;4561;-29
2023/04/08 06:35:37;;;;;;;;;;;20.50;38.20;;;;;;3052736;19;4661;-30
2023/04/08 06:36:38;;;;;;;;;;;20.50;38.30;;;;;;3054783;19;4659;-27
2023/04/08 06:37:39;;;;;;;;;;;20.50;38.30;;;;;;3052525;19;4621;-28
2023/04/08 06:38:39;;;;;;;;;;;20.40;38.30;;;;;;3053579;19;4607;-28
2023/04/08 06:39:40;;;;;;;;;;;20.40;38.40;;;;;;3051618;19;4567;-26
2023/04/08 06:40:41;;;;;;;;;;;20.40;38.50;;;;;;3053750;19;4460;-27
2023/04/08 06:41:42;;;;;;;;;;;20.40;38.50;;;;;;3054391;19;4524;-33
2023/04/08 06:42:43;;;;;;;;;;;20.40;38.70;;;;;;3051452;19;4440;-29
2023/04/08 06:43:44;;;;;;;;;;;20.30;38.60;;;;;;3053377;19;4600;-29
2023/04/08 06:44:45;;;;;;;;;;;20.40;38.60;;;;;;3054198;19;4520;-27
2023/04/08 06:45:45;;;;;;;;;;;20.40;38.60;;;;;;3053293;19;4624;-32
2023/04/08 06:46:46;;;;;;;;;;;20.40;38.50;;;;;;3052635;19;4558;-29
2023/04/08 06:47:47;;;;;;;;;;;20.50;38.50;;;;;;3053937;19;4463;-27
2023/04/08 06:48:47;;;;;;;;;;;20.50;39.10;;;;;;3052002;19;4458;-29
2023/04/08 06:49:48;;;;;;;;;;;20.50;38.40;;;;;;3053775;19;4585;-28
2023/04/08 06:50:48;;;;;;;;;;;20.60;38.40;;;;;;3053833;19;4629;-28
2023/04/08 06:51:49;;;;;;;;;;;20.60;38.30;;;;;;3053801;19;4622;-30
2023/04/08 06:52:50;;;;;;;;;;;20.60;38.40;;;;;;3050888;19;4643;-26
2023/04/08 06:53:51;;;;;;;;;;;20.60;38.20;;;;;;3054235;19;4572;-30
2023/04/08 06:54:51;;;;;;;;;;;20.60;38.30;;;;;;3052916;19;4605;-30
2023/04/08 06:55:52;;;;;;;;;;;20.60;38.30;;;;;;3054127;19;4527;-27
2023/04/08 06:56:53;;;;;;;;;;;20.60;38.30;;;;;;3053926;19;4657;-26
2023/04/08 06:57:53;;;;;;;;;;;20.60;38.30;;;;;;3053590;19;4428;-28
2023/04/08 06:58:54;;;;;;;;;;;20.60;38.30;;;;;;3053016;19;4713;-26
2023/04/08 06:59:55;;;;;;;;;;;20.60;38.30;;;;;;3052248;19;4482;-28
2023/04/08 07:00:56;;;;;;;;;;;20.60;38.40;;;;;;3053298;19;4691;-30
2023/04/08 07:01:56;;;;;;;;;;;20.50;38.30;;;;;;3053250;19;4533;-32
2023/04/08 07:02:57;;;;;;;;;;;20.50;38.20;;;;;;3049462;19;4620;-29
2023/04/08 07:03:58;;;;;;;;;;;20.50;38.40;;;;;;3051178;19;4558;-26
2023/04/08 07:04:58;;;;;;;;;;;20.50;38.40;;;;;;3052298;19;4584;-29
2023/04/08 07:05:59;;;;;;;;;;;20.50;38.40;;;;;;3052978;19;4612;-27
2023/04/08 07:07:00;;;;;;;;;;;20.50;38.40;;;;;;3053219;19;4620;-30
2023/04/08 07:08:00;;;;;;;;;;;20.50;38.50;;;;;;3054131;19;4510;-28
2023/04/08 07:09:01;;;;;;;;;;;20.40;38.50;;;;;;3052471;19;4498;-28
2023/04/08 07:10:02;;;;;;;;;;;20.40;38.60;;;;;;3052161;19;4531;-28
2023/04/08 07:11:02;;;;;;;;;;;20.40;38.60;;;;;;3052539;19;4425;-28
2023/04/08 07:12:03;;;;;;;;;;;20.40;38.60;;;;;;3052611;19;4564;-26
2023/04/08 07:13:04;;;;;;;;;;;20.40;38.60;;;;;;3050045;19;4688;-26
2023/04/08 07:14:05;;;;;;;;;;;20.40;38.80;;;;;;3052349;19;4579;-28
2023/04/08 07:15:06;;;;;;;;;;;20.40;38.90;;;;;;3052126;19;4371;-28
2023/04/08 07:16:07;;;;;;;;;;;20.30;39.00;;;;;;3048340;19;4648;-28
2023/04/08 07:17:07;;;;;;;;;;;20.30;39.00;;;;;;3050825;19;4679;-27
2023/04/08 07:18:08;;;;;;;;;;;20.30;39.00;;;;;;3054532;19;4585;-32
2023/04/08 07:19:09;;;;;;;;;;;20.30;39.00;;;;;;3050583;19;4562;-28
2023/04/08 07:20:11;;;;;;;;;;;20.30;39.10;;;;;;3052043;19;4751;-28
2023/04/08 07:21:11;;;;;;;;;;;20.30;39.20;;;;;;3052036;19;4548;-29
2023/04/08 07:22:12;;;;;;;;;;;20.30;39.20;;;;;;3051733;19;4477;-31
2023/04/08 07:23:12;;;;;;;;;;;20.30;39.40;;;;;;3054562;19;1124;-31
2023/04/08 07:24:13;;;;;;;;;;;20.40;39.40;;;;;;3051033;19;4573;-25
2023/04/08 07:25:14;;;;;;;;;;;20.40;39.40;;;;;;3052400;19;4741;-27
2023/04/08 07:26:15;;;;;;;;;;;20.40;39.30;;;;;;3052870;19;4565;-28
2023/04/08 07:27:16;;;;;;;;;;;20.50;39.20;;;;;;3049582;19;4614;-28
2023/04/08 07:28:16;;;;;;;;;;;20.50;39.20;;;;;;3051791;19;4625;-31
2023/04/08 07:29:17;;;;;;;;;;;20.50;39.10;;;;;;3051179;19;4635;-26
2023/04/08 07:30:18;;;;;;;;;;;20.50;39.00;;;;;;3052148;19;4588;-26
2023/04/08 07:31:19;;;;;;;;;;;20.50;39.00;;;;;;3053840;19;4623;-21
2023/04/08 07:32:19;;;;;;;;;;;20.50;39.00;;;;;;3054579;19;4649;-21
2023/04/08 07:33:20;;;;;;;;;;;20.50;39.00;;;;;;3054714;19;4530;-23
2023/04/08 07:34:21;;;;;;;;;;;20.50;39.00;;;;;;3054994;19;4591;-21
2023/04/08 07:35:23;;;;;;;;;;;20.50;38.90;;;;;;3055456;19;4570;-22
2023/04/08 07:36:23;;;;;;;;;;;20.50;38.90;;;;;;3055074;19;4534;-20
2023/04/08 07:37:24;;;;;;;;;;;20.50;38.90;;;;;;3054229;19;4676;-23
2023/04/08 07:38:25;;;;;;;;;;;20.50;38.90;;;;;;3055268;19;4618;-21
2023/04/08 07:39:25;;;;;;;;;;;20.50;38.90;;;;;;3054968;19;4600;-21
2023/04/08 07:40:26;;;;;;;;;;;20.50;39.00;;;;;;3055485;19;4607;-22
2023/04/08 07:41:27;;;;;;;;;;;20.50;39.10;;;;;;3054845;19;4573;-22
2023/04/08 07:42:27;;;;;;;;;;;20.40;39.00;;;;;;3054454;19;4585;-21
2023/04/08 07:43:30;;;;;;;;;;;20.40;39.00;;;;;;3053403;19;4447;-22
2023/04/08 07:44:30;;;;;;;;;;;20.40;39.30;;;;;;3053400;19;4666;-20
2023/04/08 07:45:31;;;;;;;;;;;20.40;39.10;;;;;;3055015;19;4809;-23
2023/04/08 07:46:35;;;;;;;;;;;20.40;39.10;;;;;;3054601;19;4608;-21
2023/04/08 07:47:36;;;;;;;;;;;20.40;39.20;;;;;;3054297;19;4447;-20
2023/04/08 07:48:37;;;;;;;;;;;20.40;39.20;;;;;;3054705;19;4586;-20
2023/04/08 07:49:38;;;;;;;;;;;20.30;39.20;;;;;;3054608;19;4482;-23
2023/04/08 07:50:38;;;;;;;;;;;20.30;39.30;;;;;;3054506;19;4580;-24
2023/04/08 07:51:39;;;;;;;;;;;20.30;39.30;;;;;;3053854;19;4572;-21
2023/04/08 07:52:40;;;;;;;;;;;20.40;39.40;;;;;;3051482;19;4588;-21
2023/04/08 07:53:40;;;;;;;;;;;20.40;39.30;;;;;;3052102;19;4618;-22
2023/04/08 07:54:41;;;;;;;;;;;20.40;39.30;;;;;;3053707;19;4615;-25
2023/04/08 07:55:42;;;;;;;;;;;20.40;39.40;;;;;;3053775;19;4586;-21
2023/04/08 07:56:43;;;;;;;;;;;20.40;39.30;;;;;;3053264;19;4631;-23
2023/04/08 07:57:44;;;;;;;;;;;20.40;39.40;;;;;;3053877;19;4526;-22
2023/04/08 07:58:45;;;;;;;;;;;20.40;39.30;;;;;;3052836;19;4628;-20
2023/04/08 07:59:46;;;;;;;;;;;20.40;39.40;;;;;;3053559;19;4802;-23
2023/04/08 08:00:47;;;;;;;;;;;20.40;39.30;;;;;;3053997;19;4456;-20
2023/04/08 08:01:47;;;;;;;;;;;20.40;39.30;;;;;;3053339;19;4575;-23
2023/04/08 08:02:48;;;;;;;;;;;20.40;39.30;;;;;;3053655;19;4575;-20
2023/04/08 08:03:49;;;;;;;;;;;20.50;40.00;;;;;;3053503;19;4645;-21
2023/04/08 08:04:50;;;;;;;;;;;20.50;39.30;;;;;;3052989;19;4708;-22
2023/04/08 08:05:51;;;;;;;;;;;20.50;39.40;;;;;;3054498;19;4513;-22
2023/04/08 08:06:51;;;;;;;;;;;20.50;39.40;;;;;;3054791;19;4584;-21
2023/04/08 08:07:52;;;;;;;;;;;20.50;39.30;;;;;;3053935;19;4538;-20
2023/04/08 08:08:52;;;;;;;;;;;20.50;39.30;;;;;;3054208;19;4513;-21
2023/04/08 08:09:53;;;;;;;;;;;20.50;39.30;;;;;;3053928;19;4576;-22
2023/04/08 08:10:54;;;;;;;;;;;20.50;39.40;;;;;;3054127;19;4512;-22
2023/04/08 08:11:55;;;;;;;;;;;20.50;39.30;;;;;;3054454;19;4964;-20
2023/04/08 08:12:55;;;;;;;;;;;20.50;39.30;;;;;;3054134;19;4483;-22
2023/04/08 08:13:56;;;;;;;;;;;20.50;39.30;;;;;;3053557;19;4573;-20
2023/04/08 08:14:57;;;;;;;;;;;20.50;39.30;;;;;;3053280;19;4549;-22
2023/04/08 08:15:58;;;;;;;;;;;20.50;39.30;;;;;;3053888;19;4521;-22
2023/04/08 08:17:00;;;;;;;;;;;20.50;39.30;;;;;;3054377;19;4716;-23
2023/04/08 08:18:00;;;;;;;;;;;20.50;39.30;;;;;;3053242;19;4379;-21
2023/04/08 08:19:03;;;;;;;;;;;20.50;39.30;;;;;;3054511;19;4491;-23
2023/04/08 08:20:04;;;;;;;;;;;20.50;39.30;;;;;;3053724;19;4551;-21
2023/04/08 08:21:05;;;;;;;;;;;20.50;39.40;;;;;;3053510;19;4422;-22
2023/04/08 08:22:06;;;;;;;;;;;20.50;39.30;;;;;;3052709;19;4380;-23
2023/04/08 08:23:06;;;;;;;;;;;20.50;39.30;;;;;;3053253;19;4593;-22
2023/04/08 08:24:07;;;;;;;;;;;20.50;39.30;;;;;;3052145;19;4521;-21
2023/04/08 08:25:08;;;;;;;;;;;20.50;39.30;;;;;;3054491;19;1182;-23
2023/04/08 08:26:09;;;;;;;;;;;20.40;39.30;;;;;;3053271;19;4433;-21
2023/04/08 08:27:10;;;;;;;;;;;20.40;39.30;;;;;;3054373;19;4540;-21
2023/04/08 08:28:11;;;;;;;;;;;20.40;39.40;;;;;;3053881;19;4562;-21
2023/04/08 08:29:11;;;;;;;;;;;20.40;39.50;;;;;;3053521;19;4667;-25
2023/04/08 08:30:12;;;;;;;;;;;20.40;39.60;;;;;;3053600;19;4795;-25
2023/04/08 08:31:13;;;;;;;;;;;20.40;39.60;;;;;;3053782;19;4595;-24
2023/04/08 08:32:13;;;;;;;;;;;20.40;39.50;;;;;;3053345;19;4700;-22
2023/04/08 08:33:14;;;;;;;;;;;20.50;39.60;;;;;;3055155;19;1093;-22
2023/04/08 08:34:15;;;;;;;;;;;20.50;39.50;;;;;;3052850;19;4556;-21
2023/04/08 08:35:16;;;;;;;;;;;20.50;39.50;;;;;;3054416;19;4451;-23
2023/04/08 08:36:16;;;;;;;;;;;20.60;39.50;;;;;;3054000;19;4693;-20
2023/04/08 08:37:17;;;;;;;;;;;20.60;39.40;;;;;;3055094;19;4614;-22
2023/04/08 08:38:18;;;;;;;;;;;20.60;39.40;;;;;;3054706;19;4447;-21
2023/04/08 08:39:18;;;;;;;;;;;20.60;39.40;;;;;;3054845;19;4539;-21
2023/04/08 08:40:19;;;;;;;;;;;20.70;39.30;;;;;;3054296;19;4604;-22
2023/04/08 08:41:20;;;;;;;;;;;20.60;39.40;;;;;;3055079;19;4581;-31
2023/04/08 08:42:21;;;;;;;;;;;20.60;39.40;;;;;;3054290;19;4589;-27
2023/04/08 08:43:25;;;;;;;;;;;20.60;39.40;;;;;;3054651;19;4767;-28
2023/04/08 08:44:26;;;;;;;;;;;20.60;39.30;;;;;;3052940;19;4505;-28
2023/04/08 08:45:27;;;;;;;;;;;20.60;39.30;;;;;;3053894;19;4545;-29
2023/04/08 08:46:28;;;;;;;;;;;20.60;39.40;;;;;;3054366;19;4630;-30
2023/04/08 08:47:29;;;;;;;;;;;20.60;39.50;;;;;;3054732;19;4542;-28
2023/04/08 08:48:31;;;;;;;;;;;20.60;39.40;;;;;;3054889;19;4598;-29
2023/04/08 08:49:31;;;;;;;;;;;20.60;39.40;;;;;;3053922;19;4567;-26
2023/04/08 08:50:32;;;;;;;;;;;20.60;39.50;;;;;;3055285;19;4597;-27
2023/04/08 08:51:33;;;;;;;;;;;20.60;39.50;;;;;;3053624;19;4774;-21
2023/04/08 08:52:33;;;;;;;;;;;20.50;39.50;;;;;;3053599;19;4603;-21
2023/04/08 08:53:34;;;;;;;;;;;20.50;39.50;;;;;;3054923;19;4585;-22
2023/04/08 08:54:35;;;;;;;;;;;20.50;39.50;;;;;;3053837;19;4580;-22
2023/04/08 08:55:37;;;;;;;;;;;20.50;39.70;;;;;;3053774;19;4543;-22
2023/04/08 08:56:37;;;;;;;;;;;20.50;39.70;;;;;;3053972;19;4693;-23
2023/04/08 08:57:38;;;;;;;;;;;20.50;39.60;;;;;;3053509;19;4600;-23
2023/04/08 08:58:39;;;;;;;;;;;20.50;39.70;;;;;;3053616;19;4569;-22
2023/04/08 08:59:40;;;;;;;;;;;20.50;39.70;;;;;;3053506;19;4628;-22
2023/04/08 09:00:44;;;;;;;;;;;20.40;39.70;;;;;;3055029;19;4639;-23
2023/04/08 09:01:45;;;;;;;;;;;20.40;39.70;;;;;;3053898;19;4511;-21
2023/04/08 09:02:45;;;;;;;;;;;20.40;39.70;;;;;;3053873;19;5045;-21
2023/04/08 09:03:46;;;;;;;;;;;20.40;39.90;;;;;;3053942;19;4773;-22
2023/04/08 09:05:03;;;;;;;;;;;20.40;40.00;;;;;;3050801;19;4611;-22
2023/04/08 09:06:05;;;;;;;;;;;20.40;40.00;;;;;;3054481;19;4580;-21
2023/04/08 09:07:10;;;;;;;;;;;20.40;40.00;;;;;;3054220;19;4533;-20
2023/04/08 09:08:30;;;;;;;;;;;20.50;40.10;;;;;;3053410;19;4177;-21
2023/04/08 09:09:47;;;;;;;;;;;20.50;39.90;;;;;;2848602;19;2004465;-21
2023/04/08 09:10:47;;;;;;;;;;;20.60;39.90;;;;;;3053658;19;4494;-22
2023/04/08 09:11:48;;;;;;;;;;;20.60;39.80;;;;;;3053840;19;4544;-21
2023/04/08 09:12:53;;;;;;;;;;;20.60;39.80;;;;;;3053315;19;4554;-23
2023/04/08 09:13:54;;;;;;;;;;;20.60;39.80;;;;;;3053146;19;4533;-23
2023/04/08 09:15:05;;;;;;;;;;;20.70;39.80;;;;;;3052171;19;4686;-20
2023/04/08 09:16:08;;;;;;;;;;;20.60;39.80;;;;;;3052154;19;4646;-23
2023/04/08 09:17:08;;;;;;;;;;;20.60;39.70;;;;;;3053386;19;4509;-22
2023/04/08 09:18:21;;;;;;;;;;;20.60;39.70;;;;;;3053572;19;4538;-21
2023/04/08 09:19:21;;;;;;;;;;;20.60;39.80;;;;;;3053074;19;4458;-21
2023/04/08 09:20:22;;;;;;;;;;;20.60;39.80;;;;;;3053361;19;6681;-24
2023/04/08 09:21:23;;;;;;;;;;;20.60;39.80;;;;;;3053573;19;4645;-22
2023/04/08 09:22:25;;;;;;;;;;;20.60;39.90;;;;;;3052299;19;4590;-21
2023/04/08 09:23:40;;;;;;;;;;;20.60;39.90;;;;;;3054843;19;4580;-22
2023/04/08 09:24:41;;;;;;;;;;;20.60;40.00;;;;;;3053470;19;4589;-21
2023/04/08 09:25:41;;;;;;;;;;;20.60;39.90;;;;;;3054286;19;4571;-21
2023/04/08 09:26:45;;;;;;;;;;;20.60;39.90;;;;;;3053656;19;4513;-23
2023/04/08 09:27:45;;;;;;;;;;;20.60;39.90;;;;;;3052516;19;4585;-21
2023/04/08 09:29:04;;;;;;;;;;;20.60;39.90;;;;;;3052664;19;4546;-20
2023/04/08 09:30:14;;;;;;;;;;;20.60;39.90;;;;;;3052358;19;4603;-21
2023/04/08 09:31:19;;;;;;;;;;;20.60;40.10;;;;;;3051953;19;6255;-21
2023/04/08 09:32:20;;;;;;;;;;;20.60;40.20;;;;;;3052049;19;4834;-22
2023/04/08 09:33:28;;;;;;;;;;;20.70;40.10;;;;;;3052236;19;4845;-20
2023/04/08 09:34:31;;;;;;;;;;;20.70;40.00;;;;;;3052553;19;4542;-22
2023/04/08 09:35:31;;;;;;;;;;;20.70;39.90;;;;;;3052178;19;4573;-23
2023/04/08 09:36:32;;;;;;;;;;;20.70;40.00;;;;;;3052906;19;4418;-20
2023/04/08 09:37:33;;;;;;;;;;;20.70;39.90;;;;;;3053438;19;4577;-20
2023/04/08 09:38:33;;;;;;;;;;;20.70;39.90;;;;;;3053558;19;4618;-24
2023/04/08 09:39:34;;;;;;;;;;;20.70;40.00;;;;;;3054305;19;4590;-21
2023/04/08 09:40:35;;;;;;;;;;;20.70;39.90;;;;;;3052218;19;4629;-20
2023/04/08 09:41:37;;;;;;;;;;;20.70;39.90;;;;;;3052295;19;4469;-21
2023/04/08 09:42:39;;;;;;;;;;;20.70;39.90;;;;;;3052722;19;4564;-22
2023/04/08 09:43:50;;;;;;;;;;;20.70;39.90;;;;;;3052452;19;4788;-21
2023/04/08 09:44:50;;;;;;;;;;;20.70;39.90;;;;;;3053202;19;4633;-21
2023/04/08 09:45:51;;;;;;;;;;;20.70;39.90;;;;;;3051900;19;4552;-21
2023/04/08 09:46:57;;;;;;;;;;;20.70;39.90;;;;;;3052545;19;4560;-21
2023/04/08 09:48:11;;;;;;;;;;;20.80;39.90;;;;;;3051083;19;4523;-21
2023/04/08 09:49:35;;;;;;;;;;;20.70;40.00;;;;;;3050476;19;5897;-20
2023/04/08 09:50:41;;;;;;;;;;;20.80;40.00;;;;;;3051587;19;4642;-21
2023/04/08 09:51:50;;;;;;;;;;;20.80;39.90;;;;;;3052183;19;4423;-20
2023/04/08 09:52:53;;;;;;;;;;;20.80;39.90;;;;;;3050724;19;4540;-21
2023/04/08 09:54:08;;;;;;;;;;;20.80;39.80;;;;;;3050622;19;4460;-21
2023/04/08 09:55:08;;;;;;;;;;;20.80;39.80;;;;;;3051708;19;4237;-22
2023/04/08 09:56:10;;;;;;;;;;;20.80;39.80;;;;;;3051265;19;4524;-21
2023/04/08 09:57:21;;;;;;;;;;;20.90;39.80;;;;;;3052854;19;4468;-21
2023/04/08 09:58:27;;;;;;;;;;;20.80;39.70;;;;;;3050733;19;4572;-22
2023/04/08 09:59:28;;;;;;;;;;;20.80;39.80;;;;;;3052551;19;4541;-20
2023/04/08 10:00:33;;;;;;;;;;;20.80;39.70;;;;;;3052547;19;4624;-20
2023/04/08 10:01:38;;;;;;;;;;;20.80;39.70;;;;;;3051896;19;4743;-28
2023/04/08 10:02:58;;;;;;;;;;;20.80;39.90;;;;;;3051232;19;4623;-30
2023/04/08 10:03:58;;;;;;;;;;;20.80;39.90;;;;;;3052891;19;4903;-28
2023/04/08 10:04:59;;;;;;;;;;;20.80;39.90;;;;;;3051038;19;4791;-28
2023/04/08 10:06:00;;;;;;;;;;;20.70;39.80;;;;;;3053098;19;4541;-29
2023/04/08 10:07:03;;;;;;;;;;;20.80;39.90;;;;;;3052398;19;4579;-29
2023/04/08 10:08:05;;;;;;;;;;;20.80;39.80;;;;;;3052263;19;4528;-30
2023/04/08 10:09:06;;;;;;;;;;;20.70;39.70;;;;;;3051994;19;4328;-32
2023/04/08 10:10:09;;;;;;;;;;;20.70;39.80;;;;;;3051136;19;4575;-30
2023/04/08 10:11:10;;;;;;;;;;;20.70;39.80;;;;;;3051511;19;4561;-29
2023/04/08 10:12:11;;;;;;;;;;;20.70;39.70;;;;;;3052437;19;4484;-30
2023/04/08 10:13:11;;;;;;;;;;;20.60;39.80;;;;;;3052893;19;4608;-25
2023/04/08 10:14:12;;;;;;;;;;;20.60;39.70;;;;;;3051990;19;4828;-29
2023/04/08 10:15:28;;;;;;;;;;;20.70;39.70;;;;;;3052939;19;4601;-30
2023/04/08 10:16:29;;;;;;;;;;;20.60;39.70;;;;;;3055206;19;4704;-27
2023/04/08 10:17:35;;;;;;;;;;;20.60;39.70;;;;;;3055935;19;4620;-29
2023/04/08 10:18:37;;;;;;;;;;;20.60;39.50;;;;;;3055422;19;4450;-28
2023/04/08 10:19:41;;;;;;;;;;;20.60;39.50;;;;;;3054534;19;4463;-26
2023/04/08 10:20:43;;;;;;;;;;;20.60;39.70;;;;;;3054946;19;4558;-28
2023/04/08 10:21:47;;;;;;;;;;;20.60;39.80;;;;;;3055888;19;4592;-26
2023/04/08 10:22:48;;;;;;;;;;;20.60;39.80;;;;;;3054915;19;4586;-28
2023/04/08 10:23:53;;;;;;;;;;;20.60;39.80;;;;;;3054308;19;4496;-28
2023/04/08 10:25:26;;;;;;;;;;;20.70;39.80;;;;;;3055688;19;4646;-28
2023/04/08 10:26:43;;;;;;;;;;;20.70;39.70;;;;;;2851243;19;2004299;-28
2023/04/08 10:27:44;;;;;;;;;;;20.70;39.70;;;;;;3054855;19;4627;-28
2023/04/08 10:28:44;;;;;;;;;;;20.80;39.70;;;;;;3054525;19;4576;-28
2023/04/08 10:29:47;;;;;;;;;;;20.80;39.70;;;;;;3054735;19;4574;-30
2023/04/08 10:30:51;;;;;;;;;;;20.80;39.60;;;;;;3054570;19;4532;-27
2023/04/08 10:31:52;;;;;;;;;;;20.80;39.50;;;;;;3055611;19;4499;-28
2023/04/08 10:32:58;;;;;;;;;;;20.80;39.60;;;;;;3055668;19;4652;-31
2023/04/08 10:34:21;;;;;;;;;;;20.80;39.70;;;;;;3055421;19;4502;-29
2023/04/08 10:35:33;;;;;;;;;;;20.80;39.60;;;;;;2845024;19;2004462;-26
2023/04/08 10:36:34;;;;;;;;;;;20.80;39.60;;;;;;3053690;19;4523;-29
2023/04/08 10:37:34;;;;;;;;;;;20.70;39.60;;;;;;3053681;19;4596;-27
2023/04/08 10:38:35;;;;;;;;;;;20.70;39.60;;;;;;3054360;19;4619;-28
2023/04/08 10:39:36;;;;;;;;;;;20.70;39.70;;;;;;3054922;19;4659;-29
2023/04/08 10:40:41;;;;;;;;;;;20.70;39.60;;;;;;3055392;19;4626;-29
2023/04/08 10:41:46;;;;;;;;;;;20.70;39.60;;;;;;3054431;19;4540;-28
2023/04/08 10:42:46;;;;;;;;;;;20.70;39.60;;;;;;3055441;19;4796;-30
2023/04/08 10:43:47;;;;;;;;;;;20.70;39.60;;;;;;3053451;19;4560;-25
2023/04/08 10:44:47;;;;;;;;;;;20.70;39.60;;;;;;3054866;19;4511;-29
2023/04/08 10:45:51;;;;;;;;;;;20.70;39.70;;;;;;3053599;19;4668;-27
2023/04/08 10:46:52;;;;;;;;;;;20.60;39.60;;;;;;3055538;19;4630;-28
2023/04/08 10:47:53;;;;;;;;;;;20.60;39.70;;;;;;3054462;19;4541;-30
2023/04/08 10:49:02;;;;;;;;;;;20.60;39.60;;;;;;3053637;19;4423;-26
2023/04/08 10:50:24;;;;;;;;;;;20.70;39.70;;;;;;3054142;19;4447;-26
2023/04/08 10:51:24;;;;;;;;;;;20.60;39.80;;;;;;2950167;19;2004295;-26
2023/04/08 10:52:26;;;;;;;;;;;20.60;39.70;;;;;;3054557;19;4597;-27
2023/04/08 10:53:29;;;;;;;;;;;20.60;39.70;;;;;;3053023;19;4576;-29
2023/04/08 10:54:30;;;;;;;;;;;20.60;39.60;;;;;;3053027;19;4437;-27
2023/04/08 10:55:32;;;;;;;;;;;20.60;39.70;;;;;;3054238;19;4877;-30
2023/04/08 10:56:33;;;;;;;;;;;20.50;39.80;;;;;;3052827;19;4532;-27
2023/04/08 10:57:34;;;;;;;;;;;20.50;39.70;;;;;;3053309;19;4563;-27
2023/04/08 10:58:35;;;;;;;;;;;20.60;40.00;;;;;;3054795;19;4570;-26
2023/04/08 10:59:38;;;;;;;;;;;20.60;39.80;;;;;;3052868;19;4879;-31
2023/04/08 11:00:39;;;;;;;;;;;20.70;39.90;;;;;;3052053;19;4719;-32
2023/04/08 11:01:40;;;;;;;;;;;20.70;39.60;;;;;;3055440;19;4500;-29
2023/04/08 11:02:40;;;;;;;;;;;20.70;39.60;;;;;;3053239;19;4569;-31
2023/04/08 11:03:41;;;;;;;;;;;20.80;39.60;;;;;;3053917;19;4595;-28
2023/04/08 11:04:42;;;;;;;;;;;20.70;39.60;;;;;;3051925;19;4435;-28
2023/04/08 11:05:42;;;;;;;;;;;20.70;39.60;;;;;;3054212;19;4620;-29
2023/04/08 11:06:44;;;;;;;;;;;20.70;39.50;;;;;;3054186;19;4631;-28
2023/04/08 11:07:45;;;;;;;;;;;20.80;39.50;;;;;;3055100;19;4558;-30
2023/04/08 11:08:46;;;;;;;;;;;20.70;39.40;;;;;;3055475;19;4604;-31
2023/04/08 11:09:46;;;;;;;;;;;20.80;39.50;;;;;;3054622;19;4578;-28
2023/04/08 11:10:47;;;;;;;;;;;20.70;39.50;;;;;;3054071;19;4532;-30
2023/04/08 11:11:48;;;;;;;;;;;20.70;39.50;;;;;;3053286;19;4579;-28
2023/04/08 11:12:49;;;;;;;;;;;20.70;39.50;;;;;;3054388;19;4557;-28
2023/04/08 11:13:49;;;;;;;;;;;20.70;39.50;;;;;;3054619;19;4549;-26
2023/04/08 11:14:51;;;;;;;;;;;20.70;39.50;;;;;;3054333;19;4746;-32
2023/04/08 11:15:52;;;;;;;;;;;20.70;39.60;;;;;;3054360;19;4571;-29
2023/04/08 11:16:52;;;;;;;;;;;20.70;39.60;;;;;;3054555;19;4642;-27
2023/04/08 11:17:53;;;;;;;;;;;20.70;39.60;;;;;;3056317;19;4547;-30
2023/04/08 11:18:55;;;;;;;;;;;20.70;39.60;;;;;;3055351;19;4589;-28
2023/04/08 11:20:01;;;;;;;;;;;20.60;39.40;;;;;;3054364;19;4543;-29
2023/04/08 11:21:01;;;;;;;;;;;20.60;39.50;;;;;;3054378;19;4538;-27
2023/04/08 11:22:02;;;;;;;;;;;20.60;39.50;;;;;;3053991;19;4512;-29
2023/04/08 11:23:03;;;;;;;;;;;20.60;39.70;;;;;;3051284;19;4512;-31
2023/04/08 11:24:13;;;;;;;;;;;20.60;39.80;;;;;;3053229;19;4645;-29
2023/04/08 11:25:13;;;;;;;;;;;20.70;39.80;;;;;;3052746;19;5973;-28
2023/04/08 11:26:14;;;;;;;;;;;20.70;39.60;;;;;;3049532;19;4600;-29
2023/04/08 11:27:15;;;;;;;;;;;20.80;39.50;;;;;;3051358;19;4889;-27
2023/04/08 11:28:15;;;;;;;;;;;20.80;39.40;;;;;;3051833;19;4689;-27
2023/04/08 11:29:16;;;;;;;;;;;20.80;39.30;;;;;;3053062;19;4610;-26
2023/04/08 11:30:17;;;;;;;;;;;20.90;39.30;;;;;;3051875;19;4709;-28
2023/04/08 11:31:18;;;;;;;;;;;20.90;39.30;;;;;;3050760;19;4770;-28
2023/04/08 11:32:18;;;;;;;;;;;20.90;39.30;;;;;;3052712;19;4617;-26
2023/04/08 11:33:20;;;;;;;;;;;20.90;39.30;;;;;;3052010;19;4564;-29
2023/04/08 11:34:23;;;;;;;;;;;20.90;39.30;;;;;;3050566;19;4617;-31
2023/04/08 11:35:28;;;;;;;;;;;20.90;39.30;;;;;;3052121;19;4605;-26
2023/04/08 11:36:29;;;;;;;;;;;20.90;39.40;;;;;;3051245;19;4616;-28
2023/04/08 11:37:37;;;;;;;;;;;20.90;39.40;;;;;;3053617;19;4573;-28
2023/04/08 11:38:38;;;;;;;;;;;20.90;39.50;;;;;;3053348;19;4552;-32
2023/04/08 11:39:42;;;;;;;;;;;20.90;39.50;;;;;;3052307;19;4523;-29
2023/04/08 11:40:55;;;;;;;;;;;20.80;39.50;;;;;;3052464;19;4626;-32
2023/04/08 11:41:56;;;;;;;;;;;20.90;39.50;;;;;;3051404;19;4539;-28
2023/04/08 11:42:57;;;;;;;;;;;20.90;39.50;;;;;;3052936;19;4585;-28
2023/04/08 11:43:57;;;;;;;;;;;20.90;39.50;;;;;;3052620;19;4434;-28
2023/04/08 11:44:58;;;;;;;;;;;20.90;39.50;;;;;;3054177;19;4554;-32
2023/04/08 11:45:59;;;;;;;;;;;20.90;39.50;;;;;;3052719;19;5237;-27
2023/04/08 11:47:01;;;;;;;;;;;20.90;39.60;;;;;;3052956;19;4559;-29
2023/04/08 11:48:08;;;;;;;;;;;20.90;39.60;;;;;;3049120;19;4468;-27
2023/04/08 11:49:09;;;;;;;;;;;20.90;39.70;;;;;;3051869;19;4582;-29
2023/04/08 11:50:10;;;;;;;;;;;20.90;39.70;;;;;;3051466;19;4611;-29
2023/04/08 11:51:11;;;;;;;;;;;20.90;39.70;;;;;;3052985;19;4720;-25
2023/04/08 11:52:12;;;;;;;;;;;20.90;39.70;;;;;;3051575;19;4619;-32
2023/04/08 11:53:19;;;;;;;;;;;20.90;39.70;;;;;;3054745;19;4573;-26
2023/04/08 11:54:30;;;;;;;;;;;20.90;39.90;;;;;;3051817;19;4486;-28
2023/04/08 11:55:31;;;;;;;;;;;20.90;39.70;;;;;;3054501;19;4689;-31
2023/04/08 11:56:44;;;;;;;;;;;20.90;39.80;;;;;;3051490;19;4629;-27
2023/04/08 11:57:45;;;;;;;;;;;20.90;39.80;;;;;;3051143;19;4456;-28
2023/04/08 11:58:46;;;;;;;;;;;20.90;39.90;;;;;;3048709;19;4623;-29
2023/04/08 11:59:47;;;;;;;;;;;20.90;39.80;;;;;;3051192;19;4553;-29
2023/04/08 12:00:49;;;;;;;;;;;20.90;39.80;;;;;;3051052;19;4771;-27
2023/04/08 12:01:53;;;;;;;;;;;21.10;40.00;;;;;;3054219;19;4525;-29
2023/04/08 12:02:53;;;;;;;;;;;20.80;39.70;;;;;;3052712;19;4564;-29
2023/04/08 12:03:58;;;;;;;;;;;20.80;39.80;;;;;;3053023;19;4631;-27
2023/04/08 12:04:58;;;;;;;;;;;20.80;39.70;;;;;;3052812;19;4590;-28
2023/04/08 12:05:59;;;;;;;;;;;20.80;39.80;;;;;;3053896;19;4491;-28
2023/04/08 12:07:00;;;;;;;;;;;20.80;39.80;;;;;;3054289;19;4541;-29
2023/04/08 12:08:01;;;;;;;;;;;20.80;39.80;;;;;;3054309;19;4557;-28
2023/04/08 12:09:02;;;;;;;;;;;20.70;39.90;;;;;;3053621;19;4517;-29
2023/04/08 12:10:03;;;;;;;;;;;20.70;39.90;;;;;;3053904;19;4543;-31
2023/04/08 12:11:04;;;;;;;;;;;20.70;40.10;;;;;;3053795;19;4541;-29
2023/04/08 12:12:04;;;;;;;;;;;20.70;39.90;;;;;;3053677;19;4500;-28
2023/04/08 12:13:05;;;;;;;;;;;20.70;39.90;;;;;;3053446;19;4565;-33
2023/04/08 12:14:06;;;;;;;;;;;20.70;40.00;;;;;;3052166;19;4618;-27
2023/04/08 12:15:07;;;;;;;;;;;20.70;40.00;;;;;;3053410;19;4587;-28
2023/04/08 12:16:08;;;;;;;;;;;20.60;40.00;;;;;;3050148;19;4628;-28
2023/04/08 12:17:08;;;;;;;;;;;20.60;39.90;;;;;;3052356;19;4833;-27
2023/04/08 12:18:09;;;;;;;;;;;20.60;39.90;;;;;;3053068;19;5059;-29
2023/04/08 12:19:10;;;;;;;;;;;20.60;40.10;;;;;;3054069;19;4612;-31
2023/04/08 12:20:11;;;;;;;;;;;20.60;40.40;;;;;;3052730;19;4588;-29
2023/04/08 12:21:11;;;;;;;;;;;20.70;40.30;;;;;;3054018;19;1148;-29
2023/04/08 12:22:12;;;;;;;;;;;20.70;40.30;;;;;;3051053;19;4538;-21
2023/04/08 12:23:13;;;;;;;;;;;20.70;40.20;;;;;;3053795;19;4502;-20
2023/04/08 12:24:13;;;;;;;;;;;20.70;40.20;;;;;;3051350;19;4494;-23
2023/04/08 12:25:14;;;;;;;;;;;20.80;40.20;;;;;;3053687;19;4418;-22
2023/04/08 12:26:15;;;;;;;;;;;20.80;40.10;;;;;;3053173;19;4576;-23
2023/04/08 12:27:15;;;;;;;;;;;20.80;40.00;;;;;;3053986;19;4561;-24
2023/04/08 12:28:16;;;;;;;;;;;20.80;40.00;;;;;;3049895;19;4388;-21
2023/04/08 12:29:16;;;;;;;;;;;20.80;40.10;;;;;;3044789;19;4670;-21
2023/04/08 12:30:17;;;;;;;;;;;20.80;40.10;;;;;;3045923;19;4587;-24
2023/04/08 12:31:18;;;;;;;;;;;20.80;40.10;;;;;;3049472;19;4630;-21